sensor_id;sensor_type;location;lat;lon;timestamp;pressure;altitude;pressure_sealevel;temperature;humidity
51781;BME280;37844;57.126;24.288;2023-08-01T00:01:22;100459.91;;;16.58;100.00
51781;BME280;37844;57.126;24.288;2023-08-01T00:04:06;100466.84;;;16.59;100.00
51781;BME280;37844;57.126;24.288;2023-08-01T00:06:50;100471.13;;;16.62;100.00
51781;BME280;37844;57.126;24.288;2023-08-01T00:09:34;100470.31;;;16.58;100.00
51781;BME280;37844;57.126;24.288;2023-08-01T00:12:18;100467.63;;;16.63;100.00
51781;BME280;37844;57.126;24.288;2023-08-01T00:15:03;100460.81;;;16.56;100.00
51781;BME280;37844;57.126;24.288;2023-08-01T00:17:47;100460.78;;;16.59;100.00
51781;BME280;37844;57.126;24.288;2023-08-01T00:20:31;100460.06;;;16.49;100.00
51781;BME280;37844;57.126;24.288;2023-08-01T00:23:15;100460.09;;;16.47;100.00
51781;BME280;37844;57.126;24.288;2023-08-01T00:25:59;100457.22;;;16.63;100.00
51781;BME280;37844;57.126;24.288;2023-08-01T00:28:43;100457.06;;;16.72;100.00
51781;BME280;37844;57.126;24.288;2023-08-01T00:31:27;100455.31;;;16.72;100.00
51781;BME280;37844;57.126;24.288;2023-08-01T00:34:11;100447.50;;;16.72;100.00
51781;BME280;37844;57.126;24.288;2023-08-01T00:36:57;100448.28;;;16.81;100.00
51781;BME280;37844;57.126;24.288;2023-08-01T00:39:41;100447.59;;;16.68;100.00
51781;BME280;37844;57.126;24.288;2023-08-01T00:42:25;100445.81;;;16.73;100.00
51781;BME280;37844;57.126;24.288;2023-08-01T00:45:10;100445.03;;;16.66;100.00
51781;BME280;37844;57.126;24.288;2023-08-01T00:47:54;100443.28;;;16.68;100.00
51781;BME280;37844;57.126;24.288;2023-08-01T00:50:39;100445.06;;;16.65;100.00
51781;BME280;37844;57.126;24.288;2023-08-01T00:53:24;100444.19;;;16.66;100.00
51781;BME280;37844;57.126;24.288;2023-08-01T00:56:09;100452.81;;;16.68;100.00
51781;BME280;37844;57.126;24.288;2023-08-01T00:58:53;100448.41;;;16.73;100.00
51781;BME280;37844;57.126;24.288;2023-08-01T01:01:36;100437.91;;;16.78;100.00
51781;BME280;37844;57.126;24.288;2023-08-01T01:04:21;100432.78;;;16.73;100.00
51781;BME280;37844;57.126;24.288;2023-08-01T01:07:06;100441.41;;;16.75;100.00
51781;BME280;37844;57.126;24.288;2023-08-01T01:09:51;100438.00;;;16.73;100.00
51781;BME280;37844;57.126;24.288;2023-08-01T01:12:35;100438.91;;;16.69;100.00
51781;BME280;37844;57.126;24.288;2023-08-01T01:15:19;100440.59;;;16.73;100.00
51781;BME280;37844;57.126;24.288;2023-08-01T01:18:03;100437.94;;;16.76;100.00
51781;BME280;37844;57.126;24.288;2023-08-01T01:20:47;100427.53;;;16.74;100.00
51781;BME280;37844;57.126;24.288;2023-08-01T01:23:33;100436.34;;;16.67;100.00
51781;BME280;37844;57.126;24.288;2023-08-01T01:26:18;100421.63;;;16.65;100.00
51781;BME280;37844;57.126;24.288;2023-08-01T01:29:05;100425.09;;;16.65;100.00
51781;BME280;37844;57.126;24.288;2023-08-01T01:31:50;100417.34;;;16.62;100.00
51781;BME280;37844;57.126;24.288;2023-08-01T01:34:34;100418.19;;;16.63;100.00
51781;BME280;37844;57.126;24.288;2023-08-01T01:37:17;100425.91;;;16.69;100.00
51781;BME280;37844;57.126;24.288;2023-08-01T01:40:01;100417.06;;;16.79;100.00
51781;BME280;37844;57.126;24.288;2023-08-01T01:42:47;100424.97;;;16.73;100.00
51781;BME280;37844;57.126;24.288;2023-08-01T01:45:33;100413.75;;;16.69;100.00
51781;BME280;37844;57.126;24.288;2023-08-01T01:48:17;100420.69;;;16.70;100.00
51781;BME280;37844;57.126;24.288;2023-08-01T01:51:08;100411.28;;;16.62;100.00
51781;BME280;37844;57.126;24.288;2023-08-01T01:53:52;100396.59;;;16.58;100.00
51781;BME280;37844;57.126;24.288;2023-08-01T01:56:36;100402.41;;;16.73;100.00
51781;BME280;37844;57.126;24.288;2023-08-01T01:59:20;100399.88;;;16.69;100.00
51781;BME280;37844;57.126;24.288;2023-08-01T02:02:04;100403.31;;;16.71;100.00
51781;BME280;37844;57.126;24.288;2023-08-01T02:04:50;100392.78;;;16.77;100.00
51781;BME280;37844;57.126;24.288;2023-08-01T02:07:34;100377.22;;;16.75;100.00
51781;BME280;37844;57.126;24.288;2023-08-01T02:10:18;100387.75;;;16.68;100.00
51781;BME280;37844;57.126;24.288;2023-08-01T02:13:02;100389.41;;;16.72;100.00
51781;BME280;37844;57.126;24.288;2023-08-01T02:15:47;100382.41;;;16.75;100.00
51781;BME280;37844;57.126;24.288;2023-08-01T02:18:30;100378.78;;;16.84;100.00
51781;BME280;37844;57.126;24.288;2023-08-01T02:21:14;100370.13;;;16.84;100.00
51781;BME280;37844;57.126;24.288;2023-08-01T02:23:58;100372.75;;;16.82;100.00
51781;BME280;37844;57.126;24.288;2023-08-01T02:26:42;100357.38;;;16.68;100.00
51781;BME280;37844;57.126;24.288;2023-08-01T02:29:26;100348.78;;;16.63;100.00
51781;BME280;37844;57.126;24.288;2023-08-01T02:32:10;100354.97;;;16.56;100.00
51781;BME280;37844;57.126;24.288;2023-08-01T02:34:54;100338.59;;;16.51;100.00
51781;BME280;37844;57.126;24.288;2023-08-01T02:37:38;100353.28;;;16.53;100.00
51781;BME280;37844;57.126;24.288;2023-08-01T02:40:22;100349.00;;;16.51;100.00
51781;BME280;37844;57.126;24.288;2023-08-01T02:43:09;100335.16;;;16.49;100.00
51781;BME280;37844;57.126;24.288;2023-08-01T02:45:53;100343.88;;;16.46;100.00
51781;BME280;37844;57.126;24.288;2023-08-01T02:48:37;100329.97;;;16.49;100.00
51781;BME280;37844;57.126;24.288;2023-08-01T02:51:21;100338.75;;;16.43;100.00
51781;BME280;37844;57.126;24.288;2023-08-01T02:54:05;100324.81;;;16.46;100.00
51781;BME280;37844;57.126;24.288;2023-08-01T02:56:49;100316.16;;;16.47;100.00
51781;BME280;37844;57.126;24.288;2023-08-01T02:59:33;100315.19;;;16.51;100.00
51781;BME280;37844;57.126;24.288;2023-08-01T03:02:17;100315.22;;;16.49;100.00
51781;BME280;37844;57.126;24.288;2023-08-01T03:05:01;100306.00;;;16.31;100.00
51781;BME280;37844;57.126;24.288;2023-08-01T03:07:48;100309.44;;;16.35;100.00
51781;BME280;37844;57.126;24.288;2023-08-01T03:10:32;100313.63;;;16.42;100.00
51781;BME280;37844;57.126;24.288;2023-08-01T03:13:16;100305.84;;;16.41;100.00
51781;BME280;37844;57.126;24.288;2023-08-01T03:16:00;100304.09;;;16.41;100.00
51781;BME280;37844;57.126;24.288;2023-08-01T03:18:44;100304.03;;;16.44;100.00
51781;BME280;37844;57.126;24.288;2023-08-01T03:21:28;100305.69;;;16.50;100.00
51781;BME280;37844;57.126;24.288;2023-08-01T03:24:12;100303.00;;;16.54;100.00
51781;BME280;37844;57.126;24.288;2023-08-01T03:26:56;100297.75;;;16.56;100.00
51781;BME280;37844;57.126;24.288;2023-08-01T03:29:40;100297.63;;;16.62;100.00
51781;BME280;37844;57.126;24.288;2023-08-01T03:32:24;100288.16;;;16.60;100.00
51781;BME280;37844;57.126;24.288;2023-08-01T03:35:08;100297.81;;;16.53;100.00
51781;BME280;37844;57.126;24.288;2023-08-01T03:37:52;100290.00;;;16.53;100.00
51781;BME280;37844;57.126;24.288;2023-08-01T03:40:36;100289.91;;;16.58;100.00
51781;BME280;37844;57.126;24.288;2023-08-01T03:43:20;100291.59;;;16.60;100.00
51781;BME280;37844;57.126;24.288;2023-08-01T03:46:07;100294.13;;;16.63;100.00
51781;BME280;37844;57.126;24.288;2023-08-01T03:48:51;100296.03;;;16.57;100.00
51781;BME280;37844;57.126;24.288;2023-08-01T03:51:36;100288.94;;;16.63;100.00
51781;BME280;37844;57.126;24.288;2023-08-01T03:54:19;100284.53;;;16.68;100.00
51781;BME280;37844;57.126;24.288;2023-08-01T03:57:04;100279.31;;;16.68;100.00
51781;BME280;37844;57.126;24.288;2023-08-01T03:59:48;100283.63;;;16.69;100.00
51781;BME280;37844;57.126;24.288;2023-08-01T04:02:32;100280.91;;;16.75;100.00
51781;BME280;37844;57.126;24.288;2023-08-01T04:05:16;100271.38;;;16.74;100.00
51781;BME280;37844;57.126;24.288;2023-08-01T04:08:00;100286.25;;;16.68;100.00
51781;BME280;37844;57.126;24.288;2023-08-01T04:10:44;100281.09;;;16.66;100.00
51781;BME280;37844;57.126;24.288;2023-08-01T04:13:28;100287.75;;;16.81;100.00
51781;BME280;37844;57.126;24.288;2023-08-01T04:16:12;100302.38;;;16.87;100.00
51781;BME280;37844;57.126;24.288;2023-08-01T04:18:56;100293.78;;;16.85;100.00
51781;BME280;37844;57.126;24.288;2023-08-01T04:21:40;100282.34;;;16.92;100.00
51781;BME280;37844;57.126;24.288;2023-08-01T04:24:24;100295.19;;;17.00;100.00
51781;BME280;37844;57.126;24.288;2023-08-01T04:27:09;100285.97;;;16.85;100.00
51781;BME280;37844;57.126;24.288;2023-08-01T04:29:54;100283.03;;;17.00;100.00
51781;BME280;37844;57.126;24.288;2023-08-01T04:32:38;100294.09;;;17.10;100.00
51781;BME280;37844;57.126;24.288;2023-08-01T04:35:22;100284.25;;;17.24;100.00
51781;BME280;37844;57.126;24.288;2023-08-01T04:38:06;100291.84;;;17.33;100.00
51781;BME280;37844;57.126;24.288;2023-08-01T04:40:52;100288.25;;;17.39;100.00
51781;BME280;37844;57.126;24.288;2023-08-01T04:43:36;100290.81;;;17.42;100.00
51781;BME280;37844;57.126;24.288;2023-08-01T04:46:20;100285.28;;;17.56;100.00
51781;BME280;37844;57.126;24.288;2023-08-01T04:49:04;100275.34;;;17.72;100.00
51781;BME280;37844;57.126;24.288;2023-08-01T04:51:51;100261.06;;;17.88;100.00
51781;BME280;37844;57.126;24.288;2023-08-01T04:54:35;100242.72;;;17.91;100.00
51781;BME280;37844;57.126;24.288;2023-08-01T04:57:19;100249.16;;;18.12;100.00
51781;BME280;37844;57.126;24.288;2023-08-01T05:00:04;100242.09;;;18.16;100.00
51781;BME280;37844;57.126;24.288;2023-08-01T05:02:48;100251.28;;;18.31;100.00
51781;BME280;37844;57.126;24.288;2023-08-01T05:05:32;100241.53;;;18.37;100.00
51781;BME280;37844;57.126;24.288;2023-08-01T05:08:16;100220.53;;;18.42;100.00
51781;BME280;37844;57.126;24.288;2023-08-01T05:11:00;100234.16;;;18.53;100.00
51781;BME280;37844;57.126;24.288;2023-08-01T05:13:44;100240.47;;;18.74;100.00
51781;BME280;37844;57.126;24.288;2023-08-01T05:16:28;100244.31;;;18.94;100.00
51781;BME280;37844;57.126;24.288;2023-08-01T05:19:12;100244.09;;;19.01;100.00
51781;BME280;37844;57.126;24.288;2023-08-01T05:21:56;100250.16;;;19.02;100.00
51781;BME280;37844;57.126;24.288;2023-08-01T05:24:41;100246.56;;;19.06;100.00
51781;BME280;37844;57.126;24.288;2023-08-01T05:27:25;100255.94;;;19.13;100.00
51781;BME280;37844;57.126;24.288;2023-08-01T05:30:09;100255.13;;;19.11;100.00
51781;BME280;37844;57.126;24.288;2023-08-01T05:32:53;100255.44;;;19.28;100.00
51781;BME280;37844;57.126;24.288;2023-08-01T05:35:38;100249.75;;;19.44;100.00
51781;BME280;37844;57.126;24.288;2023-08-01T05:38:22;100246.03;;;19.51;100.00
51781;BME280;37844;57.126;24.288;2023-08-01T05:41:05;100248.00;;;19.73;100.00
51781;BME280;37844;57.126;24.288;2023-08-01T05:43:51;100236.84;;;19.92;100.00
51781;BME280;37844;57.126;24.288;2023-08-01T05:46:35;100235.50;;;20.07;100.00
51781;BME280;37844;57.126;24.288;2023-08-01T05:49:19;100227.97;;;19.98;100.00
51781;BME280;37844;57.126;24.288;2023-08-01T05:52:05;100236.59;;;20.00;100.00
51781;BME280;37844;57.126;24.288;2023-08-01T05:54:49;100241.34;;;20.14;100.00
51781;BME280;37844;57.126;24.288;2023-08-01T05:57:33;100218.88;;;20.33;100.00
51781;BME280;37844;57.126;24.288;2023-08-01T06:00:18;100214.47;;;20.59;100.00
51781;BME280;37844;57.126;24.288;2023-08-01T06:03:05;100216.06;;;20.63;100.00
51781;BME280;37844;57.126;24.288;2023-08-01T06:05:50;100229.03;;;20.90;100.00
51781;BME280;37844;57.126;24.288;2023-08-01T06:08:34;100231.56;;;20.93;100.00
51781;BME280;37844;57.126;24.288;2023-08-01T06:11:19;100230.13;;;20.84;100.00
51781;BME280;37844;57.126;24.288;2023-08-01T06:14:03;100225.56;;;20.89;100.00
51781;BME280;37844;57.126;24.288;2023-08-01T06:16:47;100219.88;;;20.78;100.00
51781;BME280;37844;57.126;24.288;2023-08-01T06:19:31;100241.56;;;20.82;100.00
51781;BME280;37844;57.126;24.288;2023-08-01T06:22:15;100218.91;;;20.81;100.00
51781;BME280;37844;57.126;24.288;2023-08-01T06:24:59;100222.31;;;20.83;100.00
51781;BME280;37844;57.126;24.288;2023-08-01T06:27:43;100226.50;;;20.88;100.00
51781;BME280;37844;57.126;24.288;2023-08-01T06:30:27;100221.59;;;20.79;100.00
51781;BME280;37844;57.126;24.288;2023-08-01T06:33:11;100222.25;;;20.84;100.00
51781;BME280;37844;57.126;24.288;2023-08-01T06:35:55;100222.91;;;20.91;100.00
51781;BME280;37844;57.126;24.288;2023-08-01T06:38:39;100230.28;;;21.25;100.00
51781;BME280;37844;57.126;24.288;2023-08-01T06:41:23;100229.06;;;22.19;100.00
51781;BME280;37844;57.126;24.288;2023-08-01T06:44:07;100223.75;;;23.18;100.00
51781;BME280;37844;57.126;24.288;2023-08-01T06:46:51;100208.81;;;24.41;100.00
51781;BME280;37844;57.126;24.288;2023-08-01T06:49:35;100203.75;;;24.53;100.00
51781;BME280;37844;57.126;24.288;2023-08-01T06:52:19;100200.13;;;24.72;100.00
51781;BME280;37844;57.126;24.288;2023-08-01T06:55:03;100208.19;;;24.53;99.67
51781;BME280;37844;57.126;24.288;2023-08-01T06:57:47;100218.91;;;24.50;97.89
51781;BME280;37844;57.126;24.288;2023-08-01T07:00:31;100215.44;;;24.65;97.93
51781;BME280;37844;57.126;24.288;2023-08-01T07:03:15;100211.66;;;24.20;99.38
51781;BME280;37844;57.126;24.288;2023-08-01T07:05:59;100228.09;;;24.08;100.00
51781;BME280;37844;57.126;24.288;2023-08-01T07:08:44;100208.63;;;23.58;100.00
51781;BME280;37844;57.126;24.288;2023-08-01T07:11:28;100220.66;;;23.27;100.00
51781;BME280;37844;57.126;24.288;2023-08-01T07:14:12;100223.22;;;23.29;100.00
51781;BME280;37844;57.126;24.288;2023-08-01T07:16:55;100211.78;;;23.84;100.00
51781;BME280;37844;57.126;24.288;2023-08-01T07:19:39;100213.81;;;24.29;100.00
51781;BME280;37844;57.126;24.288;2023-08-01T07:22:23;100218.81;;;24.34;98.40
51781;BME280;37844;57.126;24.288;2023-08-01T07:25:08;100209.66;;;24.25;99.81
51781;BME280;37844;57.126;24.288;2023-08-01T07:27:52;100214.53;;;23.98;100.00
51781;BME280;37844;57.126;24.288;2023-08-01T07:30:36;100208.50;;;23.96;100.00
51781;BME280;37844;57.126;24.288;2023-08-01T07:33:20;100201.91;;;24.05;100.00
51781;BME280;37844;57.126;24.288;2023-08-01T07:36:04;100214.00;;;23.91;100.00
51781;BME280;37844;57.126;24.288;2023-08-01T07:38:48;100215.63;;;23.77;100.00
51781;BME280;37844;57.126;24.288;2023-08-01T07:41:32;100221.81;;;23.22;100.00
51781;BME280;37844;57.126;24.288;2023-08-01T07:44:18;100214.94;;;23.00;100.00
51781;BME280;37844;57.126;24.288;2023-08-01T07:47:02;100199.50;;;23.65;100.00
51781;BME280;37844;57.126;24.288;2023-08-01T07:49:46;100197.50;;;24.05;100.00
51781;BME280;37844;57.126;24.288;2023-08-01T07:52:30;100199.75;;;24.46;100.00
51781;BME280;37844;57.126;24.288;2023-08-01T07:55:14;100201.09;;;24.20;98.96
51781;BME280;37844;57.126;24.288;2023-08-01T07:57:59;100219.34;;;24.07;100.00
51781;BME280;37844;57.126;24.288;2023-08-01T08:00:43;100205.22;;;24.26;99.74
51781;BME280;37844;57.126;24.288;2023-08-01T08:03:27;100222.44;;;24.16;97.84
51781;BME280;37844;57.126;24.288;2023-08-01T08:06:11;100209.69;;;23.90;98.80
51781;BME280;37844;57.126;24.288;2023-08-01T08:08:55;100195.91;;;23.85;100.00
51781;BME280;37844;57.126;24.288;2023-08-01T08:11:39;100195.75;;;23.35;100.00
51781;BME280;37844;57.126;24.288;2023-08-01T08:14:23;100213.03;;;23.40;100.00
51781;BME280;37844;57.126;24.288;2023-08-01T08:17:07;100216.94;;;23.32;100.00
51781;BME280;37844;57.126;24.288;2023-08-01T08:19:51;100225.88;;;23.46;100.00
51781;BME280;37844;57.126;24.288;2023-08-01T08:22:35;100199.56;;;23.83;100.00
51781;BME280;37844;57.126;24.288;2023-08-01T08:25:19;100220.09;;;24.27;100.00
51781;BME280;37844;57.126;24.288;2023-08-01T08:28:03;100217.31;;;24.12;100.00
51781;BME280;37844;57.126;24.288;2023-08-01T08:30:47;100194.16;;;24.19;100.00
51781;BME280;37844;57.126;24.288;2023-08-01T08:33:31;100195.13;;;24.34;100.00
51781;BME280;37844;57.126;24.288;2023-08-01T08:36:15;100216.66;;;24.42;100.00
51781;BME280;37844;57.126;24.288;2023-08-01T08:38:59;100224.91;;;24.19;97.93
51781;BME280;37844;57.126;24.288;2023-08-01T08:41:50;100207.31;;;24.19;100.00
51781;BME280;37844;57.126;24.288;2023-08-01T08:44:42;100203.84;;;24.19;100.00
51781;BME280;37844;57.126;24.288;2023-08-01T08:47:27;100221.25;;;24.21;99.40
51781;BME280;37844;57.126;24.288;2023-08-01T08:50:12;100228.69;;;24.13;99.74
51781;BME280;37844;57.126;24.288;2023-08-01T08:52:57;100219.25;;;23.91;100.00
51781;BME280;37844;57.126;24.288;2023-08-01T08:55:42;100214.22;;;23.87;100.00
51781;BME280;37844;57.126;24.288;2023-08-01T08:58:29;100214.91;;;23.56;100.00
51781;BME280;37844;57.126;24.288;2023-08-01T09:01:15;100213.38;;;23.52;100.00
51781;BME280;37844;57.126;24.288;2023-08-01T09:04:01;100207.34;;;24.02;100.00
51781;BME280;37844;57.126;24.288;2023-08-01T09:06:46;100204.50;;;24.40;100.00
51781;BME280;37844;57.126;24.288;2023-08-01T09:09:32;100205.34;;;24.07;100.00
51781;BME280;37844;57.126;24.288;2023-08-01T09:12:16;100217.97;;;23.83;100.00
51781;BME280;37844;57.126;24.288;2023-08-01T09:15:01;100212.44;;;23.70;100.00
51781;BME280;37844;57.126;24.288;2023-08-01T09:17:55;100206.69;;;23.44;100.00
51781;BME280;37844;57.126;24.288;2023-08-01T09:20:46;100238.06;;;23.30;100.00
51781;BME280;37844;57.126;24.288;2023-08-01T09:23:30;100214.28;;;23.14;100.00
51781;BME280;37844;57.126;24.288;2023-08-01T09:26:21;100220.19;;;23.00;100.00
51781;BME280;37844;57.126;24.288;2023-08-01T09:31:49;100213.50;;;22.93;100.00
51781;BME280;37844;57.126;24.288;2023-08-01T09:34:34;100223.50;;;22.85;100.00
51781;BME280;37844;57.126;24.288;2023-08-01T09:37:18;100221.38;;;22.74;100.00
51781;BME280;37844;57.126;24.288;2023-08-01T09:40:02;100221.22;;;22.58;100.00
51781;BME280;37844;57.126;24.288;2023-08-01T09:42:46;100209.28;;;22.70;100.00
51781;BME280;37844;57.126;24.288;2023-08-01T09:45:30;100203.69;;;22.78;100.00
51781;BME280;37844;57.126;24.288;2023-08-01T09:48:28;100200.13;;;22.98;100.00
51781;BME280;37844;57.126;24.288;2023-08-01T09:51:14;100200.59;;;23.07;100.00
51781;BME280;37844;57.126;24.288;2023-08-01T09:53:58;100203.84;;;23.13;100.00
51781;BME280;37844;57.126;24.288;2023-08-01T09:56:47;100207.00;;;23.02;100.00
51781;BME280;37844;57.126;24.288;2023-08-01T09:59:33;100195.72;;;23.17;100.00
51781;BME280;37844;57.126;24.288;2023-08-01T10:02:19;100211.69;;;23.32;100.00
51781;BME280;37844;57.126;24.288;2023-08-01T10:05:07;100204.34;;;23.38;100.00
51781;BME280;37844;57.126;24.288;2023-08-01T10:07:52;100182.75;;;23.32;100.00
51781;BME280;37844;57.126;24.288;2023-08-01T10:10:37;100197.84;;;23.28;100.00
51781;BME280;37844;57.126;24.288;2023-08-01T10:13:23;100187.50;;;23.42;100.00
51781;BME280;37844;57.126;24.288;2023-08-01T10:16:08;100188.22;;;23.63;100.00
51781;BME280;37844;57.126;24.288;2023-08-01T10:18:52;100200.81;;;23.57;100.00
51781;BME280;37844;57.126;24.288;2023-08-01T10:21:38;100180.63;;;23.57;100.00
51781;BME280;37844;57.126;24.288;2023-08-01T10:24:24;100175.19;;;23.43;100.00
51781;BME280;37844;57.126;24.288;2023-08-01T10:27:19;100176.91;;;23.61;100.00
51781;BME280;37844;57.126;24.288;2023-08-01T10:30:04;100176.94;;;23.79;100.00
51781;BME280;37844;57.126;24.288;2023-08-01T10:32:54;100162.00;;;23.79;100.00
51781;BME280;37844;57.126;24.288;2023-08-01T10:35:39;100161.31;;;23.76;100.00
51781;BME280;37844;57.126;24.288;2023-08-01T10:38:23;100164.28;;;23.68;100.00
51781;BME280;37844;57.126;24.288;2023-08-01T10:44:15;100183.38;;;23.37;100.00
51781;BME280;37844;57.126;24.288;2023-08-01T10:47:01;100178.25;;;22.97;100.00
51781;BME280;37844;57.126;24.288;2023-08-01T10:49:45;100158.53;;;22.70;100.00
51781;BME280;37844;57.126;24.288;2023-08-01T10:52:29;100166.34;;;22.52;100.00
51781;BME280;37844;57.126;24.288;2023-08-01T10:55:13;100177.38;;;22.21;100.00
51781;BME280;37844;57.126;24.288;2023-08-01T10:57:57;100203.69;;;21.78;100.00
51781;BME280;37844;57.126;24.288;2023-08-01T11:00:42;100216.41;;;21.67;100.00
51781;BME280;37844;57.126;24.288;2023-08-01T11:03:37;100215.34;;;21.27;100.00
51781;BME280;37844;57.126;24.288;2023-08-01T11:06:21;100202.19;;;21.29;100.00
51781;BME280;37844;57.126;24.288;2023-08-01T11:09:18;100193.53;;;21.27;100.00
51781;BME280;37844;57.126;24.288;2023-08-01T11:12:03;100195.19;;;21.29;100.00
51781;BME280;37844;57.126;24.288;2023-08-01T11:14:47;100203.56;;;21.37;100.00
51781;BME280;37844;57.126;24.288;2023-08-01T11:17:32;100187.97;;;21.34;100.00
51781;BME280;37844;57.126;24.288;2023-08-01T11:20:19;100200.06;;;21.38;100.00
51781;BME280;37844;57.126;24.288;2023-08-01T11:23:04;100221.03;;;21.38;100.00
51781;BME280;37844;57.126;24.288;2023-08-01T11:25:49;100226.91;;;21.45;100.00
51781;BME280;37844;57.126;24.288;2023-08-01T11:28:35;100231.03;;;21.51;100.00
51781;BME280;37844;57.126;24.288;2023-08-01T11:31:19;100214.06;;;21.37;100.00
51781;BME280;37844;57.126;24.288;2023-08-01T11:34:03;100206.13;;;21.41;100.00
51781;BME280;37844;57.126;24.288;2023-08-01T11:36:47;100211.38;;;21.41;100.00
51781;BME280;37844;57.126;24.288;2023-08-01T11:39:31;100210.59;;;21.59;100.00
51781;BME280;37844;57.126;24.288;2023-08-01T11:42:16;100205.81;;;21.69;100.00
51781;BME280;37844;57.126;24.288;2023-08-01T11:45:11;100199.94;;;21.84;100.00
51781;BME280;37844;57.126;24.288;2023-08-01T11:47:56;100200.25;;;21.97;100.00
51781;BME280;37844;57.126;24.288;2023-08-01T11:50:40;100210.03;;;21.93;100.00
51781;BME280;37844;57.126;24.288;2023-08-01T11:53:24;100215.16;;;21.96;100.00
51781;BME280;37844;57.126;24.288;2023-08-01T11:56:19;100212.53;;;21.96;100.00
51781;BME280;37844;57.126;24.288;2023-08-01T11:59:13;100204.19;;;21.87;100.00
51781;BME280;37844;57.126;24.288;2023-08-01T12:01:58;100213.66;;;21.91;100.00
51781;BME280;37844;57.126;24.288;2023-08-01T12:04:45;100203.94;;;21.93;100.00
51781;BME280;37844;57.126;24.288;2023-08-01T12:07:30;100206.56;;;21.93;100.00
51781;BME280;37844;57.126;24.288;2023-08-01T12:10:14;100193.47;;;21.93;100.00
51781;BME280;37844;57.126;24.288;2023-08-01T12:12:58;100202.97;;;21.95;100.00
51781;BME280;37844;57.126;24.288;2023-08-01T12:15:42;100211.38;;;21.83;100.00
51781;BME280;37844;57.126;24.288;2023-08-01T12:18:28;100230.81;;;21.57;100.00
51781;BME280;37844;57.126;24.288;2023-08-01T12:21:13;100244.88;;;21.54;100.00
51781;BME280;37844;57.126;24.288;2023-08-01T12:23:56;100265.78;;;21.34;100.00
51781;BME280;37844;57.126;24.288;2023-08-01T12:26:41;100302.06;;;20.99;100.00
51781;BME280;37844;57.126;24.288;2023-08-01T12:29:25;100278.03;;;20.38;100.00
51781;BME280;37844;57.126;24.288;2023-08-01T12:32:16;100275.25;;;20.42;100.00
51781;BME280;37844;57.126;24.288;2023-08-01T12:35:00;100280.63;;;20.39;100.00
51781;BME280;37844;57.126;24.288;2023-08-01T12:37:44;100276.03;;;20.46;100.00
51781;BME280;37844;57.126;24.288;2023-08-01T12:40:28;100274.81;;;20.56;100.00
51781;BME280;37844;57.126;24.288;2023-08-01T12:43:11;100275.63;;;20.58;100.00
51781;BME280;37844;57.126;24.288;2023-08-01T12:45:56;100276.25;;;20.65;100.00
51781;BME280;37844;57.126;24.288;2023-08-01T12:48:43;100275.22;;;20.69;100.00
51781;BME280;37844;57.126;24.288;2023-08-01T12:51:27;100277.50;;;20.78;100.00
51781;BME280;37844;57.126;24.288;2023-08-01T12:54:11;100278.38;;;20.79;100.00
51781;BME280;37844;57.126;24.288;2023-08-01T12:56:55;100287.97;;;20.78;100.00
51781;BME280;37844;57.126;24.288;2023-08-01T12:59:39;100284.16;;;20.87;100.00
51781;BME280;37844;57.126;24.288;2023-08-01T13:02:23;100283.50;;;21.05;100.00
51781;BME280;37844;57.126;24.288;2023-08-01T13:05:07;100286.66;;;20.90;100.00
51781;BME280;37844;57.126;24.288;2023-08-01T13:07:51;100288.78;;;20.80;100.00
51781;BME280;37844;57.126;24.288;2023-08-01T13:10:38;100285.47;;;20.75;100.00
51781;BME280;37844;57.126;24.288;2023-08-01T13:13:22;100293.47;;;20.72;100.00
51781;BME280;37844;57.126;24.288;2023-08-01T13:16:06;100298.75;;;20.70;100.00
51781;BME280;37844;57.126;24.288;2023-08-01T13:18:50;100297.38;;;20.60;100.00
51781;BME280;37844;57.126;24.288;2023-08-01T13:21:34;100293.22;;;20.53;100.00
51781;BME280;37844;57.126;24.288;2023-08-01T13:24:18;100296.84;;;20.49;100.00
51781;BME280;37844;57.126;24.288;2023-08-01T13:27:01;100292.94;;;20.36;100.00
51781;BME280;37844;57.126;24.288;2023-08-01T13:29:45;100269.00;;;20.21;100.00
51781;BME280;37844;57.126;24.288;2023-08-01T13:32:30;100286.31;;;20.25;100.00
51781;BME280;37844;57.126;24.288;2023-08-01T13:35:14;100283.72;;;20.25;100.00
51781;BME280;37844;57.126;24.288;2023-08-01T13:37:59;100292.63;;;20.20;100.00
51781;BME280;37844;57.126;24.288;2023-08-01T13:40:43;100293.63;;;20.16;100.00
51781;BME280;37844;57.126;24.288;2023-08-01T13:43:27;100283.59;;;20.03;100.00
51781;BME280;37844;57.126;24.288;2023-08-01T13:46:15;100287.91;;;20.04;100.00
51781;BME280;37844;57.126;24.288;2023-08-01T13:48:59;100273.94;;;20.05;100.00
51781;BME280;37844;57.126;24.288;2023-08-01T13:51:43;100276.59;;;20.04;100.00
51781;BME280;37844;57.126;24.288;2023-08-01T13:54:27;100265.53;;;19.96;100.00
51781;BME280;37844;57.126;24.288;2023-08-01T13:57:11;100256.63;;;20.01;100.00
51781;BME280;37844;57.126;24.288;2023-08-01T13:59:55;100250.22;;;20.10;100.00
51781;BME280;37844;57.126;24.288;2023-08-01T14:02:39;100240.31;;;20.20;100.00
51781;BME280;37844;57.126;24.288;2023-08-01T14:05:27;100230.47;;;20.26;100.00